Terminal Aerodrome Forecast
Issued by NWS Charleston, WV

Current Version | Previous Version | Graphics & Text | Print | Product List | Glossary On
Versions: 1 2 3 4 5 6 7 8 9 10 11 12 13 14 15 16 17 18 19 20 21 22 23 24 25
269
FTUS41 KRLX 060855 AAA
TAFPKB
TAF AMD
KPKB 060855Z 0609/0706 06005KT P6SM OVC100
     FM061400 09006KT P6SM OVC035
     FM061500 10006KT 4SM -RA OVC025
     FM061800 11006KT 2SM -RA OVC015
     FM062300 19005KT P6SM OVC010
     FM070200 26005KT P6SM BKN010=

USA.gov is the U.S. government's official web portal to all federal, state and local government web resources and services.